Time;durP1;ratioP1;P1;durP2;ratioP2;P2;SDS_P1;SDS_P2;PMS_P1;PMS_P2;Temp;Humidity;BMP_temperature;BMP_pressure;BME280_temperature;BME280_humidity;BME280_pressure;Samples;Min_cycle;Max_cycle;Signal;HPM_P1;HPM_P2
2024/02/22 00:00:00;;;;;;;19.25;3.63;;;;;;;;;;5061742;28;20039;-61
2024/02/22 00:02:30;;;;;;;14.95;2.90;;;;;;;;;;5055203;28;20330;-61
2024/02/22 00:04:56;;;;;;;1.75;1.63;;;;;;;;;;5064802;28;20503;-63
2024/02/22 00:07:22;;;;;;;6.45;2.58;;;;;;;;;;5062277;28;20099;-61
2024/02/22 00:09:48;;;;;;;8.30;2.72;;;;;;;;;;5059504;28;20021;-65
2024/02/22 00:12:14;;;;;;;8.38;2.53;;;;;;;;;;5062525;28;20527;-61
2024/02/22 00:14:41;;;;;;;11.30;2.40;;;;;;;;;;5057118;28;20029;-61
2024/02/22 00:17:07;;;;;;;8.95;2.85;;;;;;;;;;5063966;28;20033;-60
2024/02/22 00:19:34;;;;;;;5.65;2.50;;;;;;;;;;5066013;28;20035;-60
2024/02/22 00:22:00;;;;;;;13.60;2.22;;;;;;;;;;5061202;28;20028;-61
2024/02/22 00:24:26;;;;;;;9.93;2.95;;;;;;;;;;5047372;28;20185;-62
2024/02/22 00:26:52;;;;;;;23.33;3.40;;;;;;;;;;5064544;28;20055;-61
2024/02/22 00:29:18;;;;;;;15.25;2.67;;;;;;;;;;5060257;28;20021;-60
2024/02/22 00:31:44;;;;;;;8.40;2.60;;;;;;;;;;5065230;28;20021;-61
2024/02/22 00:34:10;;;;;;;7.25;2.60;;;;;;;;;;5055104;28;20556;-60
2024/02/22 00:36:40;;;;;;;4.38;2.30;;;;;;;;;;5060629;28;20028;-60
2024/02/22 00:39:09;;;;;;;5.85;2.05;;;;;;;;;;5065452;28;20024;-60
2024/02/22 00:41:35;;;;;;;9.43;2.50;;;;;;;;;;5070516;28;20393;-60
2024/02/22 00:44:01;;;;;;;8.88;3.35;;;;;;;;;;5050662;28;20025;-60
2024/02/22 00:46:27;;;;;;;11.50;2.45;;;;;;;;;;5054345;28;20126;-59
2024/02/22 00:48:54;;;;;;;10.38;2.92;;;;;;;;;;5063620;28;20021;-60
2024/02/22 00:51:21;;;;;;;11.30;3.40;;;;;;;;;;5059737;28;20039;-60
2024/02/22 00:53:47;;;;;;;7.40;2.33;;;;;;;;;;5067090;28;20028;-60
2024/02/22 00:56:15;;;;;;;6.72;2.53;;;;;;;;;;5061847;28;20020;-61
2024/02/22 00:58:42;;;;;;;9.00;2.45;;;;;;;;;;5057829;28;20035;-62
2024/02/22 01:01:08;;;;;;;7.80;2.95;;;;;;;;;;5060854;28;20055;-60
2024/02/22 01:03:35;;;;;;;17.58;2.97;;;;;;;;;;5055928;28;20543;-63
2024/02/22 01:06:01;;;;;;;12.45;2.67;;;;;;;;;;5051064;28;20305;-59
2024/02/22 01:08:28;;;;;;;7.18;1.90;;;;;;;;;;5059813;28;20070;-59
2024/02/22 01:10:54;;;;;;;11.18;2.65;;;;;;;;;;5056351;28;20032;-59
2024/02/22 01:13:22;;;;;;;4.55;2.35;;;;;;;;;;5042122;28;20499;-60
2024/02/22 01:15:48;;;;;;;6.15;2.28;;;;;;;;;;5057760;28;20031;-60
2024/02/22 01:18:15;;;;;;;6.15;2.58;;;;;;;;;;5071458;28;20028;-60
2024/02/22 01:20:41;;;;;;;7.13;2.80;;;;;;;;;;5057575;28;20391;-61
2024/02/22 01:23:07;;;;;;;3.90;1.80;;;;;;;;;;5059843;28;20576;-60
2024/02/22 01:25:34;;;;;;;9.73;2.25;;;;;;;;;;5063395;28;20025;-61
2024/02/22 01:28:00;;;;;;;4.70;2.63;;;;;;;;;;5061922;28;20025;-62
2024/02/22 01:30:26;;;;;;;6.85;2.28;;;;;;;;;;5063783;28;20039;-60
2024/02/22 01:32:53;;;;;;;1.50;1.40;;;;;;;;;;5058363;28;20176;-59
2024/02/22 01:35:19;;;;;;;2.75;1.63;;;;;;;;;;5066362;28;20108;-59
2024/02/22 01:37:45;;;;;;;2.50;1.40;;;;;;;;;;5059159;28;20036;-61
2024/02/22 01:40:12;;;;;;;4.03;1.38;;;;;;;;;;5061491;28;20043;-60
2024/02/22 01:42:41;;;;;;;2.78;1.63;;;;;;;;;;5062449;28;20459;-61
2024/02/22 01:45:07;;;;;;;2.25;1.40;;;;;;;;;;5065325;28;20133;-63
2024/02/22 01:47:34;;;;;;;3.63;1.65;;;;;;;;;;5061760;28;20044;-62
2024/02/22 01:50:00;;;;;;;3.50;1.55;;;;;;;;;;5055588;28;20032;-65
2024/02/22 01:52:26;;;;;;;1.40;1.38;;;;;;;;;;5054177;28;20032;-63
2024/02/22 01:54:53;;;;;;;7.43;1.33;;;;;;;;;;5058942;28;20078;-62
2024/02/22 01:57:19;;;;;;;1.05;1.05;;;;;;;;;;5057903;28;20364;-60
2024/02/22 01:59:45;;;;;;;1.48;1.38;;;;;;;;;;5063880;28;20028;-60
2024/02/22 02:02:12;;;;;;;1.40;1.30;;;;;;;;;;5060975;28;20094;-60
2024/02/22 02:04:38;;;;;;;1.10;1.10;;;;;;;;;;5065359;28;20041;-60
2024/02/22 02:07:05;;;;;;;2.80;1.40;;;;;;;;;;5060689;28;20032;-60
2024/02/22 02:09:31;;;;;;;1.40;1.30;;;;;;;;;;5064470;28;20059;-65
2024/02/22 02:11:57;;;;;;;0.90;0.90;;;;;;;;;;5057519;28;20485;-60
2024/02/22 02:14:23;;;;;;;0.88;0.88;;;;;;;;;;5064157;28;20141;-61
2024/02/22 02:16:50;;;;;;;2.63;1.63;;;;;;;;;;5062226;28;20032;-60
2024/02/22 02:19:27;;;;;;;1.23;1.23;;;;;;;;;;5058660;28;20035;-60
2024/02/22 02:21:53;;;;;;;3.75;1.20;;;;;;;;;;5054051;28;20429;-60
2024/02/22 02:24:33;;;;;;;4.60;1.85;;;;;;;;;;5063262;28;20442;-60
2024/02/22 02:26:59;;;;;;;1.05;1.05;;;;;;;;;;5057860;28;20037;-60
2024/02/22 02:29:26;;;;;;;0.90;0.90;;;;;;;;;;5059830;28;20016;-60
2024/02/22 02:31:52;;;;;;;0.90;0.90;;;;;;;;;;5059405;28;20024;-60
2024/02/22 02:34:18;;;;;;;13.57;1.65;;;;;;;;;;5054293;28;20032;-60
2024/02/22 02:36:45;;;;;;;1.40;1.40;;;;;;;;;;5062329;28;20517;-61
2024/02/22 02:39:11;;;;;;;1.20;1.20;;;;;;;;;;5060961;28;20032;-61
2024/02/22 02:41:37;;;;;;;1.00;1.00;;;;;;;;;;5050062;28;20468;-62
2024/02/22 02:44:05;;;;;;;1.10;1.10;;;;;;;;;;5055719;28;20059;-61
2024/02/22 02:46:31;;;;;;;1.00;1.00;;;;;;;;;;5062614;28;20033;-61
2024/02/22 02:48:58;;;;;;;1.45;1.45;;;;;;;;;;5059442;28;20482;-61
2024/02/22 02:51:24;;;;;;;3.53;1.20;;;;;;;;;;5059361;28;20032;-62
2024/02/22 02:53:50;;;;;;;1.00;1.00;;;;;;;;;;5057146;28;20028;-66
2024/02/22 02:56:16;;;;;;;1.00;1.00;;;;;;;;;;5058895;28;20119;-62
2024/02/22 02:58:42;;;;;;;3.08;1.38;;;;;;;;;;5054276;28;20025;-61
2024/02/22 03:01:08;;;;;;;1.10;1.10;;;;;;;;;;5061833;28;20119;-65
2024/02/22 03:03:35;;;;;;;2.70;1.00;;;;;;;;;;5061455;28;20021;-62
2024/02/22 03:06:01;;;;;;;1.33;1.10;;;;;;;;;;5062898;28;20025;-61
2024/02/22 03:08:27;;;;;;;0.98;0.98;;;;;;;;;;5054142;28;20020;-61
2024/02/22 03:10:53;;;;;;;1.40;1.30;;;;;;;;;;5064667;28;20052;-61
2024/02/22 03:13:21;;;;;;;1.10;1.10;;;;;;;;;;5066388;28;20559;-62
2024/02/22 03:15:48;;;;;;;1.13;1.13;;;;;;;;;;5063223;28;20817;-61
2024/02/22 03:18:14;;;;;;;1.40;1.40;;;;;;;;;;5061449;28;20040;-61
2024/02/22 03:20:41;;;;;;;0.90;0.90;;;;;;;;;;5064617;28;20066;-61
2024/02/22 03:23:07;;;;;;;1.48;1.38;;;;;;;;;;5061144;28;20029;-66
2024/02/22 03:25:34;;;;;;;1.65;1.30;;;;;;;;;;5058205;28;20539;-61
2024/02/22 03:28:00;;;;;;;2.53;1.45;;;;;;;;;;5053685;28;20083;-61
2024/02/22 03:30:27;;;;;;;1.27;1.17;;;;;;;;;;5059602;28;20384;-63
2024/02/22 03:32:53;;;;;;;1.88;1.00;;;;;;;;;;5064359;28;20501;-63
2024/02/22 03:35:20;;;;;;;4.45;1.40;;;;;;;;;;5063332;28;20115;-61
2024/02/22 03:37:46;;;;;;;1.20;1.20;;;;;;;;;;5063666;28;20032;-61
2024/02/22 03:40:13;;;;;;;1.30;1.30;;;;;;;;;;5062460;28;20388;-63
2024/02/22 03:42:39;;;;;;;1.10;1.10;;;;;;;;;;5058120;28;20025;-61
2024/02/22 03:45:05;;;;;;;0.90;0.90;;;;;;;;;;5058778;28;20031;-61
2024/02/22 03:47:32;;;;;;;1.40;1.40;;;;;;;;;;5060904;28;20100;-61
2024/02/22 03:49:59;;;;;;;1.45;1.15;;;;;;;;;;5059939;28;20024;-61
2024/02/22 03:52:25;;;;;;;1.10;1.10;;;;;;;;;;5055385;28;20029;-62
2024/02/22 03:54:51;;;;;;;3.25;1.25;;;;;;;;;;5056961;28;20107;-62
2024/02/22 03:57:18;;;;;;;1.00;1.00;;;;;;;;;;5061703;28;20031;-61
2024/02/22 03:59:44;;;;;;;1.95;1.02;;;;;;;;;;5064871;28;20030;-61
2024/02/22 04:02:10;;;;;;;2.80;2.15;;;;;;;;;;5062316;28;20511;-61
2024/02/22 04:04:36;;;;;;;1.10;1.10;;;;;;;;;;5058476;28;20469;-61
2024/02/22 04:07:03;;;;;;;1.25;1.15;;;;;;;;;;5062851;28;20132;-61
2024/02/22 04:09:29;;;;;;;0.90;0.90;;;;;;;;;;5057220;28;20029;-61
2024/02/22 04:11:57;;;;;;;5.25;1.15;;;;;;;;;;5059883;28;20028;-61
2024/02/22 04:14:23;;;;;;;2.10;1.55;;;;;;;;;;5056662;28;20082;-62
2024/02/22 04:16:49;;;;;;;1.13;1.13;;;;;;;;;;5063824;28;20422;-62
2024/02/22 04:19:15;;;;;;;1.00;1.00;;;;;;;;;;5059433;28;20029;-61
2024/02/22 04:21:41;;;;;;;1.20;1.20;;;;;;;;;;5053149;28;20048;-63
2024/02/22 04:24:08;;;;;;;0.93;0.93;;;;;;;;;;5064318;28;20093;-63
2024/02/22 04:26:47;;;;;;;1.00;1.00;;;;;;;;;;5046210;28;20029;-61
2024/02/22 04:29:15;;;;;;;1.50;1.40;;;;;;;;;;5064884;28;20102;-61
2024/02/22 04:31:41;;;;;;;0.90;0.90;;;;;;;;;;5065511;28;20024;-64
2024/02/22 04:34:07;;;;;;;1.30;1.25;;;;;;;;;;5062823;28;20052;-62
2024/02/22 04:36:37;;;;;;;1.48;1.33;;;;;;;;;;5050539;28;20454;-62
2024/02/22 04:39:03;;;;;;;1.30;1.30;;;;;;;;;;5063140;28;20032;-62
2024/02/22 04:41:29;;;;;;;1.33;1.30;;;;;;;;;;5058493;28;20033;-61
2024/02/22 04:43:55;;;;;;;0.95;0.95;;;;;;;;;;5057012;28;20036;-61
2024/02/22 04:46:21;;;;;;;1.65;1.30;;;;;;;;;;5058784;28;20367;-61
2024/02/22 04:48:49;;;;;;;1.30;1.20;;;;;;;;;;5057971;28;20147;-61
2024/02/22 04:51:15;;;;;;;1.48;1.38;;;;;;;;;;5063169;28;20431;-61
2024/02/22 04:53:41;;;;;;;1.10;1.10;;;;;;;;;;5057104;28;20025;-62
2024/02/22 04:56:07;;;;;;;1.23;1.10;;;;;;;;;;5061591;28;20036;-65
2024/02/22 04:58:38;;;;;;;1.10;1.10;;;;;;;;;;5058748;28;20020;-63
2024/02/22 05:01:04;;;;;;;5.00;1.50;;;;;;;;;;5057504;28;20076;-61
2024/02/22 05:03:31;;;;;;;1.63;1.52;;;;;;;;;;5058621;28;20036;-62
2024/02/22 05:05:57;;;;;;;1.02;1.02;;;;;;;;;;5060808;28;20036;-65
2024/02/22 05:08:23;;;;;;;1.10;1.10;;;;;;;;;;5054365;28;20037;-62
2024/02/22 05:10:54;;;;;;;1.33;1.20;;;;;;;;;;5058728;28;20024;-61
2024/02/22 05:13:21;;;;;;;1.65;1.35;;;;;;;;;;5047271;28;20395;-62
2024/02/22 05:15:47;;;;;;;1.60;1.55;;;;;;;;;;5062114;28;20169;-64
2024/02/22 05:18:13;;;;;;;1.00;1.00;;;;;;;;;;5062756;28;20439;-61
2024/02/22 05:20:39;;;;;;;0.85;0.85;;;;;;;;;;5058595;28;20025;-61
2024/02/22 05:23:09;;;;;;;1.10;1.10;;;;;;;;;;5063598;28;20135;-61
2024/02/22 05:25:35;;;;;;;1.05;1.02;;;;;;;;;;5064045;28;20033;-62
2024/02/22 05:28:01;;;;;;;1.85;1.30;;;;;;;;;;5063180;28;20032;-60
2024/02/22 05:30:27;;;;;;;0.90;0.90;;;;;;;;;;5059416;28;20031;-61
2024/02/22 05:32:55;;;;;;;1.20;1.20;;;;;;;;;;5058648;28;20024;-60
2024/02/22 05:35:22;;;;;;;0.98;0.98;;;;;;;;;;5053096;28;20464;-65
2024/02/22 05:37:48;;;;;;;1.05;1.05;;;;;;;;;;5062927;28;20062;-60
2024/02/22 05:40:14;;;;;;;1.33;1.33;;;;;;;;;;5054095;28;20036;-66
2024/02/22 05:42:40;;;;;;;1.27;1.27;;;;;;;;;;5060580;28;20033;-61
2024/02/22 05:45:07;;;;;;;3.92;1.27;;;;;;;;;;5059663;28;20065;-60
2024/02/22 05:47:33;;;;;;;1.10;1.10;;;;;;;;;;5054226;28;20476;-62
2024/02/22 05:49:59;;;;;;;1.15;1.15;;;;;;;;;;5052522;28;20031;-60
2024/02/22 05:52:26;;;;;;;1.05;1.05;;;;;;;;;;5054043;28;20091;-62
2024/02/22 05:54:53;;;;;;;1.15;1.15;;;;;;;;;;5058993;28;20055;-63
2024/02/22 05:57:20;;;;;;;2.78;1.40;;;;;;;;;;5062055;28;20030;-61
2024/02/22 05:59:46;;;;;;;1.33;1.30;;;;;;;;;;5058170;28;20372;-61
2024/02/22 06:02:12;;;;;;;1.00;1.00;;;;;;;;;;5058814;28;20496;-61
2024/02/22 06:04:39;;;;;;;1.17;1.13;;;;;;;;;;5072600;28;20044;-61
2024/02/22 06:07:07;;;;;;;1.75;1.40;;;;;;;;;;5047456;28;20055;-61
2024/02/22 06:09:34;;;;;;;1.20;1.20;;;;;;;;;;5057735;28;20025;-61
2024/02/22 06:12:00;;;;;;;1.23;1.23;;;;;;;;;;5051604;28;20073;-61
2024/02/22 06:14:27;;;;;;;1.42;1.33;;;;;;;;;;5068919;28;20428;-61
2024/02/22 06:16:53;;;;;;;1.17;1.17;;;;;;;;;;5052969;28;20037;-60
2024/02/22 06:19:19;;;;;;;2.47;1.40;;;;;;;;;;5058342;28;20033;-60
2024/02/22 06:21:45;;;;;;;1.30;1.20;;;;;;;;;;5053685;28;20059;-66
2024/02/22 06:24:11;;;;;;;3.25;1.52;;;;;;;;;;5060304;28;20033;-61
2024/02/22 06:26:37;;;;;;;1.17;1.15;;;;;;;;;;5062138;28;20021;-61
2024/02/22 06:29:04;;;;;;;1.20;1.20;;;;;;;;;;5060936;28;20056;-64
2024/02/22 06:31:30;;;;;;;1.67;1.50;;;;;;;;;;5056643;28;20037;-61
2024/02/22 06:33:56;;;;;;;2.83;1.50;;;;;;;;;;5062290;28;20025;-59
2024/02/22 06:36:22;;;;;;;1.48;1.30;;;;;;;;;;5060313;28;20027;-60
2024/02/22 06:38:48;;;;;;;1.55;1.40;;;;;;;;;;5058810;28;20103;-61
2024/02/22 06:41:17;;;;;;;5.45;1.40;;;;;;;;;;5059682;28;20160;-61
2024/02/22 06:43:44;;;;;;;3.00;1.20;;;;;;;;;;5060709;28;20123;-61
2024/02/22 06:46:11;;;;;;;1.25;1.25;;;;;;;;;;5064456;28;20385;-61
2024/02/22 06:48:37;;;;;;;1.70;1.25;;;;;;;;;;5058410;28;20137;-60
2024/02/22 06:51:03;;;;;;;1.20;1.20;;;;;;;;;;5055916;28;20036;-62
2024/02/22 06:53:30;;;;;;;1.48;1.45;;;;;;;;;;5058166;28;20033;-62
2024/02/22 06:55:57;;;;;;;1.15;1.15;;;;;;;;;;5054747;28;20029;-61
2024/02/22 06:58:23;;;;;;;1.33;1.33;;;;;;;;;;5060297;28;20547;-61
2024/02/22 07:00:50;;;;;;;1.45;1.45;;;;;;;;;;5057361;28;20071;-61
2024/02/22 07:03:16;;;;;;;1.00;1.00;;;;;;;;;;5054254;28;20029;-61
2024/02/22 07:05:43;;;;;;;1.13;1.13;;;;;;;;;;5065983;28;20025;-61
2024/02/22 07:08:09;;;;;;;1.30;1.30;;;;;;;;;;5058409;28;20056;-62
2024/02/22 07:10:35;;;;;;;1.13;1.13;;;;;;;;;;5059991;28;20024;-61
2024/02/22 07:13:01;;;;;;;1.48;1.38;;;;;;;;;;5050039;28;20025;-62
2024/02/22 07:15:27;;;;;;;1.45;1.40;;;;;;;;;;5054370;28;20033;-61
2024/02/22 07:17:53;;;;;;;1.42;1.40;;;;;;;;;;5055801;28;20040;-63
2024/02/22 07:20:20;;;;;;;1.45;1.35;;;;;;;;;;5045397;28;20029;-61
2024/02/22 07:22:47;;;;;;;1.20;1.20;;;;;;;;;;5051690;28;20033;-61
2024/02/22 07:25:14;;;;;;;1.15;1.15;;;;;;;;;;5051899;28;20488;-64
2024/02/22 07:27:40;;;;;;;1.63;1.52;;;;;;;;;;5061918;28;20412;-62
2024/02/22 07:30:08;;;;;;;1.48;1.38;;;;;;;;;;5060354;28;20586;-62
2024/02/22 07:32:34;;;;;;;1.30;1.30;;;;;;;;;;5047678;28;20122;-62
2024/02/22 07:35:00;;;;;;;2.00;1.75;;;;;;;;;;5056564;28;20032;-61
2024/02/22 07:37:26;;;;;;;12.57;1.80;;;;;;;;;;5054525;28;20488;-61
2024/02/22 07:39:53;;;;;;;1.20;1.20;;;;;;;;;;5062242;28;20020;-65
2024/02/22 07:42:20;;;;;;;5.35;1.20;;;;;;;;;;5063784;28;20147;-61
2024/02/22 07:44:46;;;;;;;2.10;1.55;;;;;;;;;;5062469;28;20463;-62
2024/02/22 07:47:12;;;;;;;1.55;1.42;;;;;;;;;;5058979;28;20028;-61
2024/02/22 07:49:38;;;;;;;2.92;1.38;;;;;;;;;;5054353;28;20048;-61
2024/02/22 07:52:06;;;;;;;2.85;1.40;;;;;;;;;;5052117;28;20037;-61
2024/02/22 07:54:32;;;;;;;2.10;1.40;;;;;;;;;;5054462;28;20103;-61
2024/02/22 07:56:58;;;;;;;1.42;1.23;;;;;;;;;;5053725;28;20523;-61
2024/02/22 07:59:24;;;;;;;1.17;1.17;;;;;;;;;;5061684;28;20418;-60
2024/02/22 08:01:51;;;;;;;1.50;1.30;;;;;;;;;;5062351;28;20589;-61
2024/02/22 08:04:17;;;;;;;1.73;1.70;;;;;;;;;;5052622;28;20109;-61
2024/02/22 08:06:43;;;;;;;2.10;1.63;;;;;;;;;;5057519;28;20056;-61
2024/02/22 08:09:09;;;;;;;1.73;1.42;;;;;;;;;;5050756;28;20448;-60
2024/02/22 08:11:35;;;;;;;1.33;1.33;;;;;;;;;;5054411;28;20043;-61
2024/02/22 08:14:01;;;;;;;6.53;1.75;;;;;;;;;;5055152;28;20108;-61
2024/02/22 08:16:27;;;;;;;1.40;1.40;;;;;;;;;;5064220;28;20021;-61
2024/02/22 08:18:54;;;;;;;1.40;1.30;;;;;;;;;;5059899;28;20078;-62
2024/02/22 08:21:20;;;;;;;1.20;1.20;;;;;;;;;;5057051;28;20536;-63
2024/02/22 08:23:51;;;;;;;1.20;1.20;;;;;;;;;;5057312;28;20021;-61
2024/02/22 08:26:18;;;;;;;1.55;1.45;;;;;;;;;;5059819;28;20453;-61
2024/02/22 08:28:44;;;;;;;1.50;1.50;;;;;;;;;;5060336;28;20476;-61
2024/02/22 08:31:11;;;;;;;3.20;1.35;;;;;;;;;;5055623;28;20032;-61
2024/02/22 08:33:37;;;;;;;2.17;1.52;;;;;;;;;;5061109;28;20116;-61
2024/02/22 08:36:04;;;;;;;4.03;2.10;;;;;;;;;;5067099;28;20028;-61
2024/02/22 08:38:30;;;;;;;1.88;1.77;;;;;;;;;;5060867;28;20499;-60
2024/02/22 08:40:56;;;;;;;1.60;1.55;;;;;;;;;;5073242;28;20032;-61
2024/02/22 08:43:22;;;;;;;2.53;1.38;;;;;;;;;;5056871;28;20071;-61
2024/02/22 08:45:49;;;;;;;2.55;1.60;;;;;;;;;;5055419;28;20626;-65
2024/02/22 08:48:15;;;;;;;2.03;1.40;;;;;;;;;;5063333;28;20078;-61
2024/02/22 08:50:42;;;;;;;1.50;1.38;;;;;;;;;;5063895;28;20028;-61
2024/02/22 08:53:08;;;;;;;1.42;1.33;;;;;;;;;;5062099;28;20016;-61
2024/02/22 08:55:34;;;;;;;1.23;1.23;;;;;;;;;;5060048;28;20353;-60
2024/02/22 08:58:00;;;;;;;1.27;1.20;;;;;;;;;;5057237;28;20021;-61
2024/02/22 09:00:27;;;;;;;1.58;1.48;;;;;;;;;;5055480;28;20032;-61
2024/02/22 09:02:53;;;;;;;4.30;2.42;;;;;;;;;;5060079;28;20148;-61
2024/02/22 09:05:19;;;;;;;1.50;1.40;;;;;;;;;;5059469;28;20036;-61
2024/02/22 09:07:47;;;;;;;1.60;1.50;;;;;;;;;;5059258;28;20032;-61
2024/02/22 09:10:15;;;;;;;1.80;1.63;;;;;;;;;;5058095;28;20067;-60
2024/02/22 09:12:43;;;;;;;3.13;1.50;;;;;;;;;;5086991;28;20820;-63
2024/02/22 09:15:09;;;;;;;1.83;1.63;;;;;;;;;;5063556;28;20805;-61
2024/02/22 09:17:36;;;;;;;1.58;1.48;;;;;;;;;;5054871;28;20210;-65
2024/02/22 09:20:04;;;;;;;3.75;1.77;;;;;;;;;;5053564;28;20033;-61
2024/02/22 09:22:30;;;;;;;1.33;1.33;;;;;;;;;;5057186;28;20025;-61
2024/02/22 09:24:56;;;;;;;1.15;1.15;;;;;;;;;;5051881;28;20032;-61
2024/02/22 09:27:22;;;;;;;1.30;1.30;;;;;;;;;;5057338;28;20023;-62
2024/02/22 09:29:49;;;;;;;1.27;1.17;;;;;;;;;;5064468;28;20028;-61
2024/02/22 09:32:15;;;;;;;3.33;1.50;;;;;;;;;;5057641;28;20033;-61
2024/02/22 09:34:41;;;;;;;6.40;2.38;;;;;;;;;;5060999;28;20024;-61
2024/02/22 09:37:08;;;;;;;1.20;1.20;;;;;;;;;;5058672;28;20039;-61
2024/02/22 09:39:35;;;;;;;3.35;1.45;;;;;;;;;;5058906;28;20137;-61
2024/02/22 09:42:01;;;;;;;1.30;1.30;;;;;;;;;;5050638;28;20264;-61
2024/02/22 09:44:28;;;;;;;1.40;1.40;;;;;;;;;;5059529;28;20023;-62
2024/02/22 09:46:55;;;;;;;1.60;1.50;;;;;;;;;;5057461;28;20028;-65
2024/02/22 09:49:21;;;;;;;1.25;1.25;;;;;;;;;;5053490;28;20017;-61
2024/02/22 09:51:54;;;;;;;2.65;1.88;;;;;;;;;;5060843;28;20032;-61
2024/02/22 09:54:21;;;;;;;1.20;1.20;;;;;;;;;;5063833;28;20025;-61
2024/02/22 09:56:50;;;;;;;1.77;1.67;;;;;;;;;;5060240;28;20087;-61
2024/02/22 09:59:17;;;;;;;3.33;1.63;;;;;;;;;;5057668;28;20040;-61
2024/02/22 10:01:46;;;;;;;4.22;1.55;;;;;;;;;;5045810;28;20102;-62
2024/02/22 10:04:19;;;;;;;3.03;1.80;;;;;;;;;;5055413;28;20124;-61
2024/02/22 10:06:47;;;;;;;1.20;1.20;;;;;;;;;;5050200;28;20027;-61
2024/02/22 10:09:14;;;;;;;1.83;1.45;;;;;;;;;;5062120;28;20021;-61
2024/02/22 10:11:44;;;;;;;2.10;1.70;;;;;;;;;;5061933;28;20025;-61
2024/02/22 10:14:13;;;;;;;2.50;1.95;;;;;;;;;;5047546;28;20071;-61
2024/02/22 10:16:40;;;;;;;1.83;1.60;;;;;;;;;;5071863;28;20104;-61
2024/02/22 10:19:06;;;;;;;3.80;1.60;;;;;;;;;;5057704;28;20077;-61
2024/02/22 10:21:33;;;;;;;2.13;1.95;;;;;;;;;;5052845;28;20043;-61
2024/02/22 10:23:59;;;;;;;1.88;1.52;;;;;;;;;;5056990;28;20104;-62
2024/02/22 10:26:26;;;;;;;3.70;1.73;;;;;;;;;;5057351;28;20017;-61
2024/02/22 10:28:56;;;;;;;4.28;1.92;;;;;;;;;;5052513;28;20094;-62
2024/02/22 10:31:25;;;;;;;1.67;1.58;;;;;;;;;;5054067;28;20070;-61
2024/02/22 10:33:53;;;;;;;3.40;1.75;;;;;;;;;;5069352;28;20020;-61
2024/02/22 10:36:21;;;;;;;2.15;1.90;;;;;;;;;;5058363;28;20044;-62
2024/02/22 10:38:47;;;;;;;3.65;2.00;;;;;;;;;;5058995;28;20031;-61
2024/02/22 10:41:17;;;;;;;3.30;2.38;;;;;;;;;;5059450;28;20046;-61
2024/02/22 10:43:43;;;;;;;9.68;2.08;;;;;;;;;;5073560;28;20032;-61
2024/02/22 10:46:12;;;;;;;3.60;1.58;;;;;;;;;;5061939;28;20032;-61
2024/02/22 10:48:42;;;;;;;5.57;1.95;;;;;;;;;;5062353;28;20025;-64
2024/02/22 10:51:10;;;;;;;3.92;2.00;;;;;;;;;;5050965;28;20146;-61
2024/02/22 10:53:37;;;;;;;1.63;1.52;;;;;;;;;;5052082;28;20439;-62
2024/02/22 10:56:04;;;;;;;1.70;1.60;;;;;;;;;;5056126;28;20029;-62
2024/02/22 10:58:33;;;;;;;4.63;1.35;;;;;;;;;;5053442;28;20029;-62
2024/02/22 11:01:02;;;;;;;1.70;1.58;;;;;;;;;;5074882;28;20083;-61
2024/02/22 11:03:31;;;;;;;2.80;1.77;;;;;;;;;;5066850;28;20146;-62
2024/02/22 11:05:58;;;;;;;1.58;1.48;;;;;;;;;;5054448;28;20025;-61
2024/02/22 11:08:30;;;;;;;1.63;1.52;;;;;;;;;;5058732;28;20158;-61
2024/02/22 11:11:10;;;;;;;1.52;1.42;;;;;;;;;;5061183;28;20021;-61
2024/02/22 11:13:37;;;;;;;2.05;1.20;;;;;;;;;;5058011;28;20024;-61
2024/02/22 11:16:21;;;;;;;1.48;1.33;;;;;;;;;;5063238;28;20021;-61
2024/02/22 11:18:49;;;;;;;1.38;1.33;;;;;;;;;;5054799;28;20029;-62
2024/02/22 11:21:15;;;;;;;1.40;1.30;;;;;;;;;;5057182;28;20033;-61
2024/02/22 11:23:41;;;;;;;1.40;1.40;;;;;;;;;;5053372;28;20032;-61
2024/02/22 11:26:08;;;;;;;1.70;1.60;;;;;;;;;;5069808;28;20024;-60
2024/02/22 11:28:34;;;;;;;5.13;1.63;;;;;;;;;;5062563;28;20033;-61
2024/02/22 11:31:12;;;;;;;1.50;1.40;;;;;;;;;;5053997;28;20081;-62
2024/02/22 11:33:40;;;;;;;4.65;1.90;;;;;;;;;;5052880;28;20024;-61
2024/02/22 11:36:07;;;;;;;1.27;1.27;;;;;;;;;;5058383;28;20033;-61
2024/02/22 11:38:33;;;;;;;1.40;1.40;;;;;;;;;;5075433;28;20035;-63
2024/02/22 11:41:06;;;;;;;1.40;1.40;;;;;;;;;;5064722;28;20028;-61
2024/02/22 11:43:32;;;;;;;1.40;1.40;;;;;;;;;;5060639;28;20024;-62
2024/02/22 11:46:00;;;;;;;1.80;1.70;;;;;;;;;;5064472;28;20077;-62
2024/02/22 11:48:26;;;;;;;1.40;1.40;;;;;;;;;;5058820;28;20362;-61
2024/02/22 11:50:52;;;;;;;1.30;1.30;;;;;;;;;;5055368;28;20424;-63
2024/02/22 11:53:18;;;;;;;2.00;1.40;;;;;;;;;;5060072;28;20020;-62
2024/02/22 11:55:50;;;;;;;1.60;1.50;;;;;;;;;;5074126;28;20028;-62
2024/02/22 11:58:17;;;;;;;1.30;1.30;;;;;;;;;;5059639;28;20392;-62
2024/02/22 12:00:44;;;;;;;4.10;1.52;;;;;;;;;;5053290;28;20235;-62
2024/02/22 12:03:10;;;;;;;3.10;1.85;;;;;;;;;;5061338;28;20107;-62
2024/02/22 12:05:37;;;;;;;1.40;1.40;;;;;;;;;;5058606;28;20052;-61
2024/02/22 12:08:03;;;;;;;16.85;2.95;;;;;;;;;;5059234;28;20058;-62
2024/02/22 12:10:30;;;;;;;1.90;1.70;;;;;;;;;;5057227;28;20028;-62
2024/02/22 12:12:56;;;;;;;2.55;1.60;;;;;;;;;;5050224;28;20443;-66
2024/02/22 12:15:24;;;;;;;2.33;2.13;;;;;;;;;;5050982;28;20040;-61
2024/02/22 12:17:51;;;;;;;3.03;1.83;;;;;;;;;;5055960;28;20036;-62
2024/02/22 12:20:20;;;;;;;4.38;1.70;;;;;;;;;;5056938;28;20059;-62
2024/02/22 12:22:46;;;;;;;2.33;1.63;;;;;;;;;;5051563;28;20028;-62
2024/02/22 12:25:12;;;;;;;1.88;1.77;;;;;;;;;;5061433;28;20032;-62
2024/02/22 12:27:38;;;;;;;1.55;1.45;;;;;;;;;;5062630;28;20465;-62
2024/02/22 12:30:04;;;;;;;1.70;1.60;;;;;;;;;;5046544;28;20071;-62
2024/02/22 12:32:31;;;;;;;1.65;1.55;;;;;;;;;;5055991;28;20477;-62
2024/02/22 12:35:00;;;;;;;1.52;1.42;;;;;;;;;;5060459;28;20036;-61
2024/02/22 12:37:27;;;;;;;3.65;1.70;;;;;;;;;;5065043;28;20025;-62
2024/02/22 12:39:53;;;;;;;2.72;1.60;;;;;;;;;;5052662;28;20024;-64
2024/02/22 12:42:20;;;;;;;2.65;1.75;;;;;;;;;;5051828;28;20020;-62
2024/02/22 12:44:46;;;;;;;1.48;1.30;;;;;;;;;;5061955;28;20024;-62
2024/02/22 12:47:12;;;;;;;1.98;1.52;;;;;;;;;;5061456;28;20016;-62
2024/02/22 12:49:39;;;;;;;4.97;1.85;;;;;;;;;;5059937;28;20024;-62
2024/02/22 12:52:05;;;;;;;2.53;2.20;;;;;;;;;;5062660;28;20100;-62
2024/02/22 12:54:33;;;;;;;3.92;1.77;;;;;;;;;;5058060;28;20021;-62
2024/02/22 12:56:59;;;;;;;2.30;2.10;;;;;;;;;;5078282;28;20063;-62
2024/02/22 12:59:26;;;;;;;1.73;1.63;;;;;;;;;;5055458;28;20021;-62
2024/02/22 13:01:52;;;;;;;1.58;1.48;;;;;;;;;;5075674;28;20095;-62
2024/02/22 13:04:18;;;;;;;4.10;1.60;;;;;;;;;;5051591;28;20484;-61
2024/02/22 13:06:46;;;;;;;3.45;1.50;;;;;;;;;;5054738;28;20078;-62
2024/02/22 13:09:12;;;;;;;2.75;1.40;;;;;;;;;;5066369;28;20021;-61
2024/02/22 13:11:38;;;;;;;1.63;1.48;;;;;;;;;;5058711;28;20037;-62
2024/02/22 13:14:04;;;;;;;7.30;2.00;;;;;;;;;;5063921;28;20040;-62
2024/02/22 13:16:31;;;;;;;1.60;1.50;;;;;;;;;;5053658;28;20024;-62
2024/02/22 13:18:57;;;;;;;1.80;1.70;;;;;;;;;;5063319;28;20546;-61
2024/02/22 13:21:24;;;;;;;1.48;1.40;;;;;;;;;;5048938;28;20037;-61
2024/02/22 13:23:50;;;;;;;2.47;1.38;;;;;;;;;;5063714;28;20487;-62
2024/02/22 13:26:19;;;;;;;1.95;1.85;;;;;;;;;;5058362;28;20424;-62
2024/02/22 13:28:47;;;;;;;1.65;1.55;;;;;;;;;;5052292;28;20088;-61
2024/02/22 13:31:13;;;;;;;4.57;1.58;;;;;;;;;;5061278;28;20541;-62
2024/02/22 13:33:45;;;;;;;1.90;1.80;;;;;;;;;;5065961;28;20021;-61
2024/02/22 13:36:11;;;;;;;3.17;1.63;;;;;;;;;;5050901;28;20043;-62
2024/02/22 13:38:37;;;;;;;1.42;1.42;;;;;;;;;;5055654;28;20471;-62
2024/02/22 13:41:03;;;;;;;1.33;1.30;;;;;;;;;;5055868;28;20044;-62
2024/02/22 13:43:30;;;;;;;1.60;1.50;;;;;;;;;;5058346;28;20087;-62
2024/02/22 13:45:56;;;;;;;1.60;1.50;;;;;;;;;;5050026;28;20187;-62
2024/02/22 13:48:22;;;;;;;1.85;1.60;;;;;;;;;;5049683;28;20024;-62
2024/02/22 13:50:48;;;;;;;1.50;1.40;;;;;;;;;;5059281;28;20025;-62
2024/02/22 13:53:14;;;;;;;2.05;1.60;;;;;;;;;;5064371;28;20024;-64
2024/02/22 13:55:40;;;;;;;3.20;1.90;;;;;;;;;;5056173;28;20574;-63
2024/02/22 13:58:07;;;;;;;2.58;1.67;;;;;;;;;;5056527;28;20106;-63
2024/02/22 14:00:35;;;;;;;3.80;1.67;;;;;;;;;;5058639;28;20046;-62
2024/02/22 14:03:01;;;;;;;2.50;1.70;;;;;;;;;;5073803;28;20039;-65
2024/02/22 14:05:30;;;;;;;1.67;1.55;;;;;;;;;;5063374;28;20103;-63
2024/02/22 14:07:57;;;;;;;3.08;1.65;;;;;;;;;;5063070;28;20422;-62
2024/02/22 14:10:27;;;;;;;3.53;1.60;;;;;;;;;;5072586;28;20023;-62
2024/02/22 14:12:55;;;;;;;1.40;1.00;;;;;;;;;;5070050;28;20042;-61
2024/02/22 14:15:22;;;;;;;3.92;1.50;;;;;;;;;;5066203;28;20571;-62
2024/02/22 14:17:48;;;;;;;1.27;1.25;;;;;;;;;;5076557;28;20081;-62
2024/02/22 14:20:15;;;;;;;1.50;1.40;;;;;;;;;;5072140;28;20082;-61
2024/02/22 14:22:41;;;;;;;2.10;1.75;;;;;;;;;;5073377;28;20035;-63
2024/02/22 14:25:09;;;;;;;2.30;2.10;;;;;;;;;;5068802;28;21357;-61
2024/02/22 14:27:36;;;;;;;1.70;1.60;;;;;;;;;;5060142;28;20035;-61
2024/02/22 14:30:06;;;;;;;1.63;1.52;;;;;;;;;;5065312;28;20019;-61
2024/02/22 14:32:33;;;;;;;1.60;1.50;;;;;;;;;;5070835;28;20408;-61
2024/02/22 14:34:59;;;;;;;2.35;1.80;;;;;;;;;;5073433;28;20020;-64
2024/02/22 14:37:25;;;;;;;1.58;1.25;;;;;;;;;;5068323;28;20573;-71
2024/02/22 14:39:52;;;;;;;1.23;1.13;;;;;;;;;;5071793;28;20034;-71